createdAt,value
2017-05-26T00:01:29.747Z,12.80
2017-05-26T00:03:58.208Z,12.80
2017-05-26T00:06:26.498Z,12.80
2017-05-26T00:08:55.056Z,12.70
2017-05-26T00:11:23.331Z,12.80
2017-05-26T00:13:51.620Z,12.70
2017-05-26T00:16:20.340Z,12.70
2017-05-26T00:18:48.620Z,12.70
2017-05-26T00:21:16.912Z,12.60
2017-05-26T00:23:45.625Z,12.60
2017-05-26T00:26:13.912Z,12.60
2017-05-26T00:28:42.223Z,12.60
2017-05-26T00:31:10.807Z,12.50
2017-05-26T00:33:39.090Z,12.50
2017-05-26T00:36:07.370Z,12.50
2017-05-26T00:38:36.006Z,12.50
2017-05-26T00:41:04.296Z,12.40
2017-05-26T00:43:32.584Z,12.40
2017-05-26T00:46:01.187Z,12.30
2017-05-26T00:48:29.475Z,12.30
2017-05-26T00:50:57.767Z,12.30
2017-05-26T00:53:26.399Z,12.30
2017-05-26T00:55:54.687Z,12.20
2017-05-26T00:58:22.973Z,12.30
2017-05-26T01:00:51.685Z,12.20
2017-05-26T01:03:19.967Z,12.20
2017-05-26T01:05:48.288Z,12.20
2017-05-26T01:08:16.870Z,12.20
2017-05-26T01:10:45.160Z,12.20
2017-05-26T01:13:13.450Z,12.20
2017-05-26T01:15:42.062Z,12.20
2017-05-26T01:18:10.336Z,12.10
2017-05-26T01:20:38.679Z,12.10
2017-05-26T01:23:07.361Z,12.00
2017-05-26T01:25:35.663Z,12.00
2017-05-26T01:28:03.947Z,11.90
2017-05-26T01:30:32.551Z,11.80
2017-05-26T01:33:01.586Z,11.80
2017-05-26T01:35:29.899Z,11.70
2017-05-26T01:37:58.567Z,11.70
2017-05-26T01:40:26.847Z,11.80
2017-05-26T01:42:55.133Z,11.80
2017-05-26T01:45:23.754Z,11.70
2017-05-26T01:47:52.048Z,11.70
2017-05-26T01:50:20.323Z,11.70
2017-05-26T01:52:48.934Z,11.70
2017-05-26T01:55:17.312Z,11.60
2017-05-26T01:57:45.669Z,11.60
2017-05-26T02:00:14.336Z,11.40
2017-05-26T02:02:42.704Z,11.40
2017-05-26T02:05:11.071Z,11.50
2017-05-26T02:07:39.721Z,11.50
2017-05-26T02:10:08.011Z,11.50
2017-05-26T02:12:36.303Z,11.60
2017-05-26T02:15:04.925Z,11.50
2017-05-26T02:17:33.207Z,11.50
2017-05-26T02:20:01.496Z,11.50
2017-05-26T02:22:30.091Z,11.50
2017-05-26T02:24:58.381Z,11.40
2017-05-26T02:27:26.688Z,11.40
2017-05-26T02:29:55.265Z,11.40
2017-05-26T02:32:23.548Z,11.40
2017-05-26T02:34:51.831Z,11.30
2017-05-26T02:37:20.490Z,11.40
2017-05-26T02:39:48.767Z,11.30
2017-05-26T02:42:17.053Z,11.40
2017-05-26T02:44:45.699Z,11.30
2017-05-26T02:47:13.986Z,11.30
2017-05-26T02:49:42.288Z,11.20
2017-05-26T02:52:10.870Z,11.20
2017-05-26T02:54:39.146Z,11.20
2017-05-26T02:57:07.481Z,11.20
2017-05-26T02:59:36.062Z,11.20
2017-05-26T03:02:04.350Z,11.20
2017-05-26T03:04:32.634Z,11.30
2017-05-26T03:07:01.275Z,11.20
2017-05-26T03:09:29.629Z,11.10
2017-05-26T03:11:57.995Z,11.20
2017-05-26T03:14:26.662Z,11.30
2017-05-26T03:16:54.954Z,11.20
2017-05-26T03:19:23.237Z,11.30
2017-05-26T03:21:51.956Z,11.20
2017-05-26T03:24:20.244Z,11.20
2017-05-26T03:26:49.460Z,11.30
2017-05-26T03:29:18.074Z,11.30
2017-05-26T03:31:46.533Z,11.30
2017-05-26T03:34:15.003Z,11.40
2017-05-26T03:36:43.676Z,11.40
2017-05-26T03:39:12.134Z,11.50
2017-05-26T03:41:40.602Z,11.50
2017-05-26T03:44:09.166Z,11.50
2017-05-26T03:46:37.461Z,11.50
2017-05-26T03:49:05.756Z,11.60
2017-05-26T03:51:34.375Z,11.60
2017-05-26T03:54:02.665Z,11.60
2017-05-26T03:56:30.955Z,11.60
2017-05-26T03:58:59.549Z,11.60
2017-05-26T04:01:27.831Z,11.60
2017-05-26T04:03:56.172Z,11.70
2017-05-26T04:06:24.763Z,11.70
2017-05-26T04:08:53.041Z,11.80
2017-05-26T04:11:21.371Z,11.80
2017-05-26T04:13:50.129Z,11.90
2017-05-26T04:16:18.414Z,11.90
2017-05-26T04:18:46.779Z,12.00
2017-05-26T04:21:15.423Z,12.00
2017-05-26T04:23:43.704Z,12.10
2017-05-26T04:26:12.157Z,12.20
2017-05-26T04:28:40.825Z,12.30
2017-05-26T04:31:09.192Z,12.30
2017-05-26T04:33:37.486Z,12.40
2017-05-26T04:36:06.079Z,12.50
2017-05-26T04:38:34.371Z,12.50
2017-05-26T04:41:02.845Z,12.60
2017-05-26T04:43:31.857Z,12.70
2017-05-26T04:46:00.182Z,12.80
2017-05-26T04:48:28.552Z,12.90
2017-05-26T04:50:57.140Z,13.00
2017-05-26T04:53:25.496Z,13.10
2017-05-26T04:55:53.946Z,13.20
2017-05-26T04:58:22.619Z,13.40
2017-05-26T05:00:50.904Z,13.50
2017-05-26T05:03:19.232Z,13.60
2017-05-26T05:05:47.807Z,13.70
2017-05-26T05:08:16.088Z,13.70
2017-05-26T05:10:44.387Z,13.90
2017-05-26T05:13:12.992Z,14.10
2017-05-26T05:15:41.304Z,14.10
2017-05-26T05:18:09.645Z,14.20
2017-05-26T05:20:38.289Z,14.30
2017-05-26T05:23:06.584Z,14.30
2017-05-26T05:25:34.864Z,14.60
2017-05-26T05:28:03.471Z,14.60
2017-05-26T05:30:31.775Z,14.90
2017-05-26T05:32:59.310Z,14.80
2017-05-26T05:35:27.876Z,15.10
2017-05-26T05:37:56.322Z,15.30
2017-05-26T05:40:24.614Z,15.30
2017-05-26T05:42:53.252Z,15.50
2017-05-26T05:45:21.547Z,15.60
2017-05-26T05:47:49.852Z,15.80
2017-05-26T05:50:18.457Z,15.90
2017-05-26T05:52:46.751Z,16.00
2017-05-26T05:55:15.045Z,16.10
2017-05-26T05:57:43.838Z,16.10
2017-05-26T06:00:12.132Z,16.20
2017-05-26T06:02:40.464Z,16.40
2017-05-26T06:05:09.083Z,16.50
2017-05-26T06:07:37.367Z,16.60
2017-05-26T06:10:05.756Z,16.70
2017-05-26T06:12:34.425Z,16.90
2017-05-26T06:15:02.727Z,17.00
2017-05-26T06:17:31.023Z,17.10
2017-05-26T06:19:59.623Z,17.30
2017-05-26T06:22:27.918Z,17.40
2017-05-26T06:24:56.211Z,17.60
2017-05-26T06:27:24.827Z,17.60
2017-05-26T06:29:53.178Z,17.70
2017-05-26T06:32:21.479Z,17.80
2017-05-26T06:34:50.091Z,17.80
2017-05-26T06:37:18.450Z,18.00
2017-05-26T06:39:46.825Z,18.20
2017-05-26T06:42:15.495Z,18.20
2017-05-26T06:44:43.947Z,18.30
2017-05-26T06:47:12.235Z,18.50
2017-05-26T06:49:40.982Z,18.60
2017-05-26T06:52:09.454Z,18.70
2017-05-26T06:54:37.840Z,18.70
2017-05-26T06:57:06.512Z,18.90
2017-05-26T06:59:34.863Z,19.00
2017-05-26T07:02:03.227Z,19.10
2017-05-26T07:04:31.885Z,19.20
2017-05-26T07:07:00.167Z,19.40
2017-05-26T07:09:28.533Z,19.50
2017-05-26T07:11:57.176Z,19.60
2017-05-26T07:14:25.547Z,19.60
2017-05-26T07:16:53.867Z,19.80
2017-05-26T07:19:22.466Z,20.00
2017-05-26T07:21:50.746Z,20.10
2017-05-26T07:24:19.105Z,20.10
2017-05-26T07:26:47.736Z,20.20
2017-05-26T07:29:16.007Z,20.30
2017-05-26T07:31:44.294Z,20.50
2017-05-26T07:34:12.894Z,20.70
2017-05-26T07:36:41.220Z,20.80
2017-05-26T07:39:09.501Z,20.80
2017-05-26T07:41:38.151Z,21.00
2017-05-26T07:44:06.463Z,21.10
2017-05-26T07:46:34.763Z,21.30
2017-05-26T07:49:03.355Z,21.50
2017-05-26T07:51:31.723Z,21.70
2017-05-26T07:53:59.999Z,21.60
2017-05-26T07:56:28.610Z,21.70
2017-05-26T07:58:56.909Z,21.80
2017-05-26T08:01:25.198Z,22.00
2017-05-26T08:03:53.812Z,22.10
2017-05-26T08:06:22.190Z,22.30
2017-05-26T08:08:50.479Z,22.30
2017-05-26T08:11:19.123Z,22.30
2017-05-26T08:13:47.588Z,22.60
2017-05-26T08:16:15.880Z,22.70
2017-05-26T08:18:44.621Z,22.80
2017-05-26T08:21:12.902Z,22.90
2017-05-26T08:23:41.192Z,22.90
2017-05-26T08:26:09.804Z,23.00
2017-05-26T08:28:38.163Z,23.00
2017-05-26T08:31:06.585Z,23.00
2017-05-26T08:33:35.300Z,23.00
2017-05-26T08:36:03.672Z,23.10
2017-05-26T08:38:32.142Z,23.30
2017-05-26T08:41:00.719Z,23.60
2017-05-26T08:43:29.006Z,23.70
2017-05-26T08:45:57.292Z,23.80
2017-05-26T08:48:25.904Z,23.90
2017-05-26T08:50:54.255Z,24.10
2017-05-26T08:53:22.532Z,24.00
2017-05-26T08:55:51.187Z,24.10
2017-05-26T08:58:19.555Z,24.30
2017-05-26T09:00:47.906Z,24.40
2017-05-26T09:03:16.487Z,24.50
2017-05-26T09:05:44.771Z,24.80
2017-05-26T09:08:13.212Z,24.80
2017-05-26T09:10:41.886Z,24.90
2017-05-26T09:13:10.184Z,25.20
2017-05-26T09:15:38.460Z,25.30
2017-05-26T09:18:07.083Z,25.50
2017-05-26T09:20:34.595Z,25.50
2017-05-26T09:23:02.872Z,25.40
2017-05-26T09:25:31.548Z,25.30
2017-05-26T09:27:59.909Z,25.40
2017-05-26T09:30:28.203Z,25.60
2017-05-26T09:32:56.832Z,25.70
2017-05-26T09:35:25.107Z,25.80
2017-05-26T09:37:53.379Z,25.80
2017-05-26T09:40:21.967Z,25.70
2017-05-26T09:42:50.244Z,25.70
2017-05-26T09:45:18.514Z,25.70
2017-05-26T09:47:47.073Z,25.80
2017-05-26T09:50:15.360Z,25.90
2017-05-26T09:52:43.747Z,26.10
2017-05-26T09:55:12.414Z,26.10
2017-05-26T09:57:40.686Z,26.10
2017-05-26T10:00:08.967Z,26.40
2017-05-26T10:02:37.624Z,26.30
2017-05-26T10:05:05.899Z,26.40
2017-05-26T10:07:34.175Z,26.40
2017-05-26T10:10:02.735Z,26.60
2017-05-26T10:12:31.053Z,26.60
2017-05-26T10:14:59.331Z,27.00
2017-05-26T10:17:27.891Z,27.10
2017-05-26T10:19:56.171Z,26.70
2017-05-26T10:22:24.444Z,26.50
2017-05-26T10:24:53.004Z,26.20
2017-05-26T10:27:21.276Z,26.10
2017-05-26T10:29:49.550Z,26.30
2017-05-26T10:32:18.161Z,26.60
2017-05-26T10:34:46.443Z,26.60
2017-05-26T10:37:14.729Z,26.50
2017-05-26T10:39:43.357Z,26.40
2017-05-26T10:42:11.635Z,26.20
2017-05-26T10:44:39.908Z,26.10
2017-05-26T10:47:08.552Z,26.20
2017-05-26T10:49:36.826Z,26.20
2017-05-26T10:52:05.123Z,26.30
2017-05-26T10:54:33.739Z,26.40
2017-05-26T10:57:02.015Z,26.40
2017-05-26T10:59:30.291Z,26.50
2017-05-26T11:01:58.866Z,26.50
2017-05-26T11:04:27.159Z,26.60
2017-05-26T11:06:55.454Z,26.70
2017-05-26T11:09:24.127Z,26.70
2017-05-26T11:11:52.462Z,26.80
2017-05-26T11:14:20.737Z,26.70
2017-05-26T11:16:49.316Z,26.80
2017-05-26T11:19:17.601Z,26.80
2017-05-26T11:21:45.871Z,27.00
2017-05-26T11:24:14.508Z,27.30
2017-05-26T11:26:42.899Z,27.40
2017-05-26T11:29:11.181Z,27.60
2017-05-26T11:31:39.786Z,27.40
2017-05-26T11:34:08.069Z,27.40
2017-05-26T11:36:36.345Z,27.60
2017-05-26T11:39:05.062Z,27.70
2017-05-26T11:41:33.456Z,27.80
2017-05-26T11:44:01.768Z,27.80
2017-05-26T11:46:30.390Z,27.60
2017-05-26T11:48:58.710Z,27.80
2017-05-26T11:51:26.996Z,27.70
2017-05-26T11:53:55.670Z,27.90
2017-05-26T11:56:23.943Z,28.00
2017-05-26T11:58:52.215Z,28.10
2017-05-26T12:01:20.882Z,28.40
2017-05-26T12:03:49.168Z,28.30
2017-05-26T12:06:17.445Z,28.60
2017-05-26T12:08:45.987Z,28.30
2017-05-26T12:11:14.263Z,28.30
2017-05-26T12:13:42.545Z,28.60
2017-05-26T12:16:11.115Z,28.70
2017-05-26T12:18:39.399Z,28.90
2017-05-26T12:21:07.683Z,29.00
2017-05-26T12:23:36.981Z,29.10
2017-05-26T12:26:05.247Z,28.80
2017-05-26T12:28:33.526Z,28.90
2017-05-26T12:31:02.143Z,28.70
2017-05-26T12:33:30.415Z,28.50
2017-05-26T12:35:58.691Z,28.50
2017-05-26T12:38:27.248Z,28.40
2017-05-26T12:40:54.757Z,28.40
2017-05-26T12:43:23.032Z,29.10
2017-05-26T12:45:51.615Z,29.30
2017-05-26T12:48:19.891Z,29.40
2017-05-26T12:50:48.175Z,29.80
2017-05-26T12:53:16.797Z,29.80
2017-05-26T12:55:45.072Z,29.30
2017-05-26T12:58:13.364Z,29.10
2017-05-26T13:00:41.963Z,29.30
2017-05-26T13:03:10.243Z,29.50
2017-05-26T13:05:38.520Z,29.10
2017-05-26T13:08:07.171Z,28.70
2017-05-26T13:10:35.435Z,28.50
2017-05-26T13:13:03.709Z,28.30
2017-05-26T13:15:32.271Z,28.40
2017-05-26T13:18:00.549Z,28.40
2017-05-26T13:20:28.825Z,28.40
2017-05-26T13:22:57.460Z,28.30
2017-05-26T13:25:25.743Z,28.50
2017-05-26T13:27:54.030Z,28.80
2017-05-26T13:30:22.656Z,28.70
2017-05-26T13:32:50.930Z,28.50
2017-05-26T13:35:19.219Z,28.80
2017-05-26T13:37:48.249Z,29.10
2017-05-26T13:40:16.525Z,29.20
2017-05-26T13:42:44.791Z,29.40
2017-05-26T13:45:13.439Z,29.40
2017-05-26T13:47:41.706Z,29.20
2017-05-26T13:50:09.977Z,28.80
2017-05-26T13:52:38.623Z,28.70
2017-05-26T13:55:06.906Z,28.90
2017-05-26T13:57:35.180Z,29.00
2017-05-26T14:00:08.518Z,29.30
2017-05-26T14:02:37.971Z,29.60
2017-05-26T14:05:06.778Z,29.80
2017-05-26T14:07:38.262Z,29.80
2017-05-26T14:10:08.333Z,29.80
2017-05-26T14:12:36.842Z,29.40
2017-05-26T14:15:05.121Z,29.30
2017-05-26T14:17:33.692Z,29.30
2017-05-26T14:20:01.976Z,29.30
2017-05-26T14:22:30.263Z,29.40
2017-05-26T14:24:58.922Z,29.50
2017-05-26T14:27:27.293Z,29.50
2017-05-26T14:29:55.567Z,29.50
2017-05-26T14:32:24.216Z,29.20
2017-05-26T14:34:52.495Z,29.00
2017-05-26T14:37:20.832Z,28.90
2017-05-26T14:39:49.916Z,28.70
2017-05-26T14:42:18.191Z,28.90
2017-05-26T14:44:46.483Z,29.00
2017-05-26T14:47:15.102Z,29.00
2017-05-26T14:49:43.392Z,29.00
2017-05-26T14:52:11.841Z,28.90
2017-05-26T14:54:40.506Z,28.80
2017-05-26T14:57:08.863Z,28.80
2017-05-26T14:59:37.190Z,28.80
2017-05-26T15:02:05.790Z,28.60
2017-05-26T15:04:34.169Z,28.30
2017-05-26T15:07:02.445Z,28.30
2017-05-26T15:09:31.078Z,28.30
2017-05-26T15:11:59.388Z,28.40
2017-05-26T15:14:27.688Z,28.30
2017-05-26T15:16:56.279Z,28.20
2017-05-26T15:19:24.643Z,28.20
2017-05-26T15:21:52.919Z,28.00
2017-05-26T15:24:21.466Z,27.90
2017-05-26T15:26:49.836Z,27.80
2017-05-26T15:29:18.137Z,27.80
2017-05-26T15:31:46.779Z,27.60
2017-05-26T15:34:15.127Z,27.40
2017-05-26T15:36:43.400Z,27.10
2017-05-26T15:39:12.060Z,26.90
2017-05-26T15:41:40.419Z,26.80
2017-05-26T15:44:08.695Z,26.70
2017-05-26T15:46:37.358Z,26.60
2017-05-26T15:49:05.640Z,26.60
2017-05-26T15:51:33.922Z,26.60
2017-05-26T15:54:02.663Z,26.30
2017-05-26T15:56:31.103Z,26.30
2017-05-26T15:58:59.487Z,26.40
2017-05-26T16:01:28.046Z,26.30
2017-05-26T16:03:56.423Z,26.40
2017-05-26T16:06:24.783Z,26.40
2017-05-26T16:08:53.475Z,26.30
2017-05-26T16:11:21.798Z,26.20
2017-05-26T16:13:50.138Z,26.20
2017-05-26T16:16:18.741Z,26.00
2017-05-26T16:18:47.020Z,25.90
2017-05-26T16:21:15.409Z,25.80
2017-05-26T16:23:44.029Z,25.60
2017-05-26T16:26:12.300Z,25.50
2017-05-26T16:28:40.575Z,25.30
2017-05-26T16:31:09.217Z,25.10
2017-05-26T16:33:37.501Z,25.10
2017-05-26T16:36:05.789Z,24.90
2017-05-26T16:38:34.413Z,24.90
2017-05-26T16:41:02.774Z,24.80
2017-05-26T16:43:31.136Z,24.70
2017-05-26T16:45:59.808Z,24.70
2017-05-26T16:48:28.083Z,24.70
2017-05-26T16:50:56.425Z,24.60
2017-05-26T16:53:25.210Z,24.50
2017-05-26T16:55:53.580Z,24.50
2017-05-26T16:58:21.865Z,24.50
2017-05-26T17:00:50.501Z,24.50
2017-05-26T17:03:18.778Z,24.40
2017-05-26T17:05:47.125Z,24.40
2017-05-26T17:08:15.783Z,24.50
2017-05-26T17:10:44.160Z,24.30
2017-05-26T17:13:12.436Z,24.30
2017-05-26T17:15:41.074Z,24.20
2017-05-26T17:18:09.444Z,24.20
2017-05-26T17:20:37.804Z,24.20
2017-05-26T17:23:06.466Z,24.20
2017-05-26T17:25:34.776Z,24.20
2017-05-26T17:28:03.091Z,24.10
2017-05-26T17:30:31.778Z,24.00
2017-05-26T17:33:00.237Z,23.80
2017-05-26T17:35:28.704Z,23.90
2017-05-26T17:37:57.278Z,23.90
2017-05-26T17:40:25.566Z,23.80
2017-05-26T17:42:53.844Z,23.80
2017-05-26T17:45:22.467Z,23.80
2017-05-26T17:47:50.747Z,23.70
2017-05-26T17:50:19.091Z,23.80
2017-05-26T17:52:47.758Z,23.70
2017-05-26T17:55:16.047Z,23.50
2017-05-26T17:57:44.391Z,23.50
2017-05-26T18:00:13.046Z,23.40
2017-05-26T18:02:41.351Z,23.30
2017-05-26T18:05:09.676Z,23.30
2017-05-26T18:07:38.351Z,23.10
2017-05-26T18:10:06.626Z,23.10
2017-05-26T18:12:34.959Z,22.90
2017-05-26T18:15:03.643Z,22.90
2017-05-26T18:17:31.935Z,22.70
2017-05-26T18:20:00.321Z,22.70
2017-05-26T18:22:28.975Z,22.70
2017-05-26T18:24:57.299Z,22.60
2017-05-26T18:27:25.588Z,22.50
2017-05-26T18:29:54.153Z,22.40
2017-05-26T18:32:22.426Z,22.30
2017-05-26T18:34:50.727Z,22.20
2017-05-26T18:37:19.311Z,22.10
2017-05-26T18:39:47.689Z,22.00
2017-05-26T18:42:15.983Z,21.80
2017-05-26T18:44:44.604Z,21.70
2017-05-26T18:47:12.875Z,21.70
2017-05-26T18:49:41.216Z,21.70
2017-05-26T18:52:09.807Z,21.70
2017-05-26T18:54:38.087Z,21.60
2017-05-26T18:57:06.495Z,21.50
2017-05-26T18:59:35.226Z,21.40
2017-05-26T19:02:03.600Z,21.30
2017-05-26T19:04:31.929Z,21.20
2017-05-26T19:07:00.495Z,21.10
2017-05-26T19:09:28.822Z,21.00
2017-05-26T19:11:57.115Z,20.90
2017-05-26T19:14:25.851Z,20.80
2017-05-26T19:16:54.188Z,20.80
2017-05-26T19:19:22.475Z,20.70
2017-05-26T19:21:51.042Z,20.70
2017-05-26T19:24:19.343Z,20.60
2017-05-26T19:26:47.636Z,20.60
2017-05-26T19:29:16.278Z,20.60
2017-05-26T19:31:44.547Z,20.50
2017-05-26T19:34:12.830Z,20.50
2017-05-26T19:36:41.567Z,20.30
2017-05-26T19:39:09.847Z,20.30
2017-05-26T19:41:38.139Z,20.30
2017-05-26T19:44:06.851Z,20.20
2017-05-26T19:46:35.134Z,20.10
2017-05-26T19:49:03.475Z,20.10
2017-05-26T19:51:32.143Z,19.90
2017-05-26T19:54:00.432Z,19.80
2017-05-26T19:56:28.721Z,19.70
2017-05-26T19:58:57.344Z,19.70
2017-05-26T20:01:25.627Z,19.70
2017-05-26T20:03:53.912Z,19.50
2017-05-26T20:06:22.478Z,19.40
2017-05-26T20:08:50.764Z,19.40
2017-05-26T20:11:19.043Z,19.30
2017-05-26T20:13:47.619Z,19.30
2017-05-26T20:16:15.920Z,19.10
2017-05-26T20:18:44.219Z,19.10
2017-05-26T20:21:12.907Z,19.00
2017-05-26T20:23:41.201Z,18.90
2017-05-26T20:26:09.530Z,18.70
2017-05-26T20:28:38.208Z,18.60
2017-05-26T20:31:06.491Z,18.50
2017-05-26T20:33:34.842Z,18.40
2017-05-26T20:36:03.451Z,18.40
2017-05-26T20:38:31.772Z,18.40
2017-05-26T20:41:00.059Z,18.30
2017-05-26T20:43:28.695Z,18.30
2017-05-26T20:45:56.982Z,18.10
2017-05-26T20:48:25.303Z,18.10
2017-05-26T20:50:54.217Z,18.00
2017-05-26T20:53:22.571Z,18.00
2017-05-26T20:55:50.875Z,18.00
2017-05-26T20:58:19.461Z,18.10
2017-05-26T21:00:47.745Z,18.20
2017-05-26T21:03:16.041Z,18.20
2017-05-26T21:05:44.622Z,18.10
2017-05-26T21:08:12.911Z,18.00
2017-05-26T21:10:41.194Z,18.00
2017-05-26T21:13:09.909Z,18.00
2017-05-26T21:15:38.187Z,18.00
2017-05-26T21:18:06.478Z,18.00
2017-05-26T21:20:35.039Z,17.90
2017-05-26T21:23:03.411Z,18.00
2017-05-26T21:25:31.690Z,17.90
2017-05-26T21:28:00.343Z,17.90
2017-05-26T21:30:28.723Z,17.80
2017-05-26T21:32:57.190Z,17.70
2017-05-26T21:35:25.759Z,17.70
2017-05-26T21:37:54.052Z,17.70
2017-05-26T21:40:22.340Z,17.60
2017-05-26T21:42:50.919Z,17.60
2017-05-26T21:45:19.199Z,17.40
2017-05-26T21:47:47.592Z,17.40
2017-05-26T21:50:16.225Z,17.30
2017-05-26T21:52:44.595Z,17.40
2017-05-26T21:55:12.879Z,17.30
2017-05-26T21:57:41.528Z,17.30
2017-05-26T22:00:09.827Z,17.30
2017-05-26T22:02:38.145Z,17.20
2017-05-26T22:05:06.811Z,17.10
2017-05-26T22:07:35.152Z,17.20
2017-05-26T22:10:03.431Z,17.10
2017-05-26T22:12:32.015Z,17.00
2017-05-26T22:15:00.303Z,16.90
2017-05-26T22:17:28.604Z,17.00
2017-05-26T22:19:57.203Z,17.00
2017-05-26T22:22:25.488Z,16.90
2017-05-26T22:24:53.779Z,16.80
2017-05-26T22:27:22.407Z,16.80
2017-05-26T22:29:50.851Z,16.80
2017-05-26T22:32:19.131Z,16.80
2017-05-26T22:34:47.738Z,16.70
2017-05-26T22:37:16.030Z,16.60
2017-05-26T22:39:44.315Z,16.60
2017-05-26T22:42:12.898Z,16.50
2017-05-26T22:44:41.476Z,16.50
2017-05-26T22:47:09.754Z,16.50
2017-05-26T22:49:38.370Z,16.50
2017-05-26T22:52:06.649Z,16.40
2017-05-26T22:54:34.996Z,16.40
2017-05-26T22:57:03.672Z,16.30
2017-05-26T22:59:32.023Z,16.30
2017-05-26T23:02:00.496Z,16.20
2017-05-26T23:04:29.170Z,16.20
2017-05-26T23:06:57.455Z,16.10
2017-05-26T23:09:25.751Z,16.10
2017-05-26T23:11:54.351Z,16.00
2017-05-26T23:14:22.829Z,16.00
2017-05-26T23:16:51.107Z,16.00
2017-05-26T23:19:19.859Z,15.90
2017-05-26T23:21:48.235Z,15.90
2017-05-26T23:24:16.523Z,15.80
2017-05-26T23:26:45.099Z,15.80
2017-05-26T23:29:13.379Z,15.70
2017-05-26T23:31:41.660Z,15.70
2017-05-26T23:34:10.251Z,15.70
2017-05-26T23:36:38.531Z,15.70
2017-05-26T23:39:06.811Z,15.60
2017-05-26T23:41:35.389Z,15.60
2017-05-26T23:44:03.690Z,15.50
2017-05-26T23:46:31.966Z,15.50
2017-05-26T23:49:00.530Z,15.50
2017-05-26T23:51:28.881Z,15.50
2017-05-26T23:53:57.236Z,15.50
2017-05-26T23:56:25.815Z,15.50
2017-05-26T23:58:54.286Z,15.40
